Time;durP1;ratioP1;P1;durP2;ratioP2;P2;SDS_P1;SDS_P2;PMS_P1;PMS_P2;Temp;Humidity;BMP_temperature;BMP_pressure;BME280_temperature;BME280_humidity;BME280_pressure;Samples;Min_cycle;Max_cycle;Signal;HPM_P1;HPM_P2
2022/07/11 00:00:51;;;;;;;5.28;1.60;;;;;;;23.47;48.00;102356.13;5136896;27;20287;-65
2022/07/11 00:03:16;;;;;;;3.65;1.60;;;;;;;23.47;48.11;102357.97;5136369;27;20467;-65
2022/07/11 00:05:42;;;;;;;3.30;1.52;;;;;;;23.46;47.78;102357.09;5137117;27;20455;-66
2022/07/11 00:08:07;;;;;;;3.73;1.43;;;;;;;23.47;48.15;102357.97;5137208;27;20084;-65
2022/07/11 00:10:33;;;;;;;3.60;1.37;;;;;;;23.46;47.99;102358.91;5136137;27;20051;-66
2022/07/11 00:12:59;;;;;;;3.17;1.40;;;;;;;23.43;48.21;102354.72;5136782;27;20291;-65
2022/07/11 00:15:24;;;;;;;3.13;1.63;;;;;;;23.43;48.13;102354.72;5136978;27;20459;-66
2022/07/11 00:17:50;;;;;;;3.28;1.40;;;;;;;23.42;48.08;102350.34;5135842;27;20015;-66
2022/07/11 00:20:15;;;;;;;3.55;1.50;;;;;;;23.42;48.07;102354.84;5136970;27;20076;-66
2022/07/11 00:22:41;;;;;;;3.80;1.50;;;;;;;23.41;47.84;102351.31;5136727;27;20027;-66
2022/07/11 00:25:07;;;;;;;3.67;1.70;;;;;;;23.41;48.12;102345.16;5135693;27;20029;-66
2022/07/11 00:27:35;;;;;;;3.53;1.67;;;;;;;23.39;47.79;102345.28;5136732;27;20034;-66
2022/07/11 00:30:00;;;;;;;3.83;1.55;;;;;;;23.39;47.95;102341.78;5136450;27;20107;-66
2022/07/11 00:32:25;;;;;;;3.13;1.60;;;;;;;23.37;48.02;102333.91;5135854;27;20481;-66
2022/07/11 00:34:51;;;;;;;3.08;1.40;;;;;;;23.37;48.37;102331.25;5135698;27;20279;-66
2022/07/11 00:37:16;;;;;;;3.78;1.60;;;;;;;23.35;47.98;102330.50;5136656;27;20023;-66
2022/07/11 00:39:42;;;;;;;3.00;1.50;;;;;;;23.36;48.05;102333.06;5135721;27;20015;-65
2022/07/11 00:42:07;;;;;;;3.45;1.58;;;;;;;23.35;48.22;102336.69;5135957;27;20392;-66
2022/07/11 00:44:32;;;;;;;3.90;1.50;;;;;;;23.34;48.06;102332.34;5136349;27;20042;-65
2022/07/11 00:46:58;;;;;;;3.42;1.27;;;;;;;23.34;47.90;102335.00;5135101;27;20106;-65
2022/07/11 00:49:23;;;;;;;3.65;1.60;;;;;;;23.33;48.25;102335.97;5136592;27;20019;-66
2022/07/11 00:51:51;;;;;;;3.93;1.73;;;;;;;23.32;47.94;102330.75;5136543;27;20463;-65
2022/07/11 00:54:19;;;;;;;3.10;1.50;;;;;;;23.31;47.93;102331.75;5135535;27;20259;-65
2022/07/11 00:56:44;;;;;;;3.90;1.60;;;;;;;23.31;48.27;102334.41;5136209;27;20066;-66
2022/07/11 00:59:10;;;;;;;4.38;1.60;;;;;;;23.30;48.08;102335.38;5135824;27;20031;-65
2022/07/11 01:01:38;;;;;;;3.50;1.58;;;;;;;23.30;48.09;102330.03;5135144;27;20031;-66
2022/07/11 01:04:06;;;;;;;3.55;1.67;;;;;;;23.29;48.35;102323.91;5135457;27;20019;-66
2022/07/11 01:06:31;;;;;;;3.17;1.40;;;;;;;23.28;48.30;102324.00;5135147;27;20035;-66
2022/07/11 01:08:59;;;;;;;3.07;1.40;;;;;;;23.27;48.54;102317.00;5135825;27;20030;-66
2022/07/11 01:11:29;;;;;;;4.22;1.63;;;;;;;23.27;48.04;102320.50;5135961;27;20284;-66
2022/07/11 01:13:54;;;;;;;2.92;1.60;;;;;;;23.27;48.43;102327.63;5134802;27;20027;-66
2022/07/11 01:16:23;;;;;;;3.28;1.80;;;;;;;23.26;48.35;102329.47;5134728;27;20553;-66
2022/07/11 01:18:51;;;;;;;3.97;1.85;;;;;;;23.26;48.32;102325.97;5136035;27;20034;-66
2022/07/11 01:21:22;;;;;;;2.97;1.40;;;;;;;23.25;48.22;102322.44;5134788;27;20103;-65
2022/07/11 01:23:49;;;;;;;3.35;1.60;;;;;;;23.23;48.14;102327.03;5135960;27;20027;-65
2022/07/11 01:26:18;;;;;;;4.30;1.80;;;;;;;23.25;48.09;102318.94;5135414;27;20447;-65
2022/07/11 01:28:44;;;;;;;3.50;1.80;;;;;;;23.24;48.35;102322.56;5133826;27;20031;-66
2022/07/11 01:31:16;;;;;;;3.15;1.50;;;;;;;23.24;48.07;102315.44;5135428;27;20047;-66
2022/07/11 01:33:47;;;;;;;3.15;1.50;;;;;;;23.23;48.01;102327.03;5135494;27;20098;-66
2022/07/11 01:36:13;;;;;;;2.85;1.58;;;;;;;23.22;48.36;102320.03;5134301;27;20030;-66
2022/07/11 01:38:38;;;;;;;4.40;1.60;;;;;;;23.23;48.32;102320.88;5135393;27;20437;-66
2022/07/11 01:41:04;;;;;;;3.88;1.65;;;;;;;23.21;48.24;102315.69;5134919;27;20518;-65
2022/07/11 01:43:35;;;;;;;3.95;1.55;;;;;;;23.21;48.33;102318.34;5134462;27;20027;-66
2022/07/11 01:46:01;;;;;;;3.47;1.55;;;;;;;23.20;47.87;102321.13;5134250;27;20070;-66
2022/07/11 01:48:26;;;;;;;4.70;1.80;;;;;;;23.19;48.14;102320.25;5134994;27;20077;-66
2022/07/11 01:50:52;;;;;;;4.30;1.75;;;;;;;23.19;48.41;102328.25;5134417;27;20501;-66
2022/07/11 01:53:17;;;;;;;3.03;1.60;;;;;;;23.18;48.06;102327.41;5134966;27;20538;-66
2022/07/11 01:55:43;;;;;;;3.28;1.55;;;;;;;23.17;48.04;102327.53;5134107;27;20482;-66
2022/07/11 01:58:08;;;;;;;4.40;1.70;;;;;;;23.18;48.17;102332.72;5134923;27;20023;-65
2022/07/11 02:00:35;;;;;;;2.95;1.48;;;;;;;23.17;47.94;102328.38;5134880;27;20035;-66
2022/07/11 02:03:00;;;;;;;4.07;1.50;;;;;;;23.15;48.10;102327.66;5133579;27;20156;-66
2022/07/11 02:05:25;;;;;;;3.22;1.58;;;;;;;23.17;48.27;102333.69;5134888;27;20106;-66
2022/07/11 02:10:34;;;;;;;3.72;1.60;;;;;;;23.16;48.36;102328.47;5133832;27;20378;-66
2022/07/11 02:13:00;;;;;;;3.55;1.70;;;;;;;23.16;48.41;102329.34;5134366;27;20517;-66
2022/07/11 02:15:27;;;;;;;3.65;1.60;;;;;;;23.14;48.43;102325.94;5134057;27;20031;-66
2022/07/11 02:17:52;;;;;;;3.40;1.70;;;;;;;23.15;48.38;102329.47;5133353;27;20420;-66
2022/07/11 02:20:19;;;;;;;4.90;1.83;;;;;;;23.15;48.36;102324.16;5134401;27;20027;-65
2022/07/11 02:22:44;;;;;;;3.50;1.70;;;;;;;23.13;48.20;102324.28;5134311;27;20263;-65
2022/07/11 02:25:10;;;;;;;4.57;1.80;;;;;;;23.12;48.36;102325.22;5133474;27;20046;-65
2022/07/11 02:27:35;;;;;;;3.33;1.63;;;;;;;23.13;48.46;102323.41;5134522;27;20273;-65
2022/07/11 02:30:00;;;;;;;3.75;1.40;;;;;;;23.13;48.46;102326.94;5134260;27;20030;-65
2022/07/11 02:32:25;;;;;;;3.42;1.95;;;;;;;23.11;48.28;102315.56;5133578;27;20027;-66
2022/07/11 02:34:51;;;;;;;3.33;1.67;;;;;;;23.12;48.47;102319.91;5133802;27;20042;-66
2022/07/11 02:37:16;;;;;;;4.63;1.60;;;;;;;23.11;48.35;102315.56;5134154;27;20668;-66
2022/07/11 02:39:41;;;;;;;3.83;1.70;;;;;;;23.11;48.44;102320.03;5133807;27;20474;-66
2022/07/11 02:42:07;;;;;;;3.80;1.60;;;;;;;23.10;48.52;102326.34;5133904;27;20290;-66
2022/07/11 02:44:32;;;;;;;3.47;1.73;;;;;;;23.10;48.64;102329.00;5134242;27;20271;-66
2022/07/11 02:46:57;;;;;;;4.60;1.90;;;;;;;23.10;48.61;102329.00;5133052;27;20116;-66
2022/07/11 02:49:25;;;;;;;3.33;1.77;;;;;;;23.09;48.44;102317.50;5134105;27;20027;-66
2022/07/11 02:51:50;;;;;;;4.20;1.65;;;;;;;23.08;48.30;102331.78;5132981;27;20019;-66
2022/07/11 02:54:16;;;;;;;3.27;1.53;;;;;;;23.09;48.38;102329.97;5134180;27;20027;-66
2022/07/11 02:56:42;;;;;;;3.40;1.60;;;;;;;23.08;48.45;102323.81;5133795;27;20021;-66
2022/07/11 02:59:07;;;;;;;3.72;1.65;;;;;;;23.07;48.67;102327.38;5133049;27;20033;-66
2022/07/11 03:01:34;;;;;;;4.53;2.00;;;;;;;23.06;48.50;102324.84;5133850;27;20106;-66
2022/07/11 03:03:59;;;;;;;4.20;1.83;;;;;;;23.07;48.24;102323.91;5133561;27;20054;-66
2022/07/11 03:06:25;;;;;;;3.58;1.50;;;;;;;23.06;48.47;102320.38;5133033;27;20478;-66
2022/07/11 03:08:50;;;;;;;3.88;1.77;;;;;;;23.06;48.68;102320.38;5133367;27;20019;-66
2022/07/11 03:11:15;;;;;;;4.88;1.92;;;;;;;23.06;48.40;102320.38;5133450;27;20039;-66
2022/07/11 03:13:41;;;;;;;3.25;1.58;;;;;;;23.06;48.51;102322.19;5133116;27;20038;-66
2022/07/11 03:16:06;;;;;;;4.15;2.00;;;;;;;23.05;48.61;102320.50;5133428;28;20403;-66
2022/07/11 03:18:32;;;;;;;4.20;1.60;;;;;;;23.05;48.61;102331.13;5133564;28;20363;-66
2022/07/11 03:20:57;;;;;;;3.72;1.73;;;;;;;23.06;48.42;102327.50;5132585;28;20031;-66
2022/07/11 03:23:22;;;;;;;3.45;1.63;;;;;;;23.05;48.55;102336.44;5133640;28;20031;-66
2022/07/11 03:25:47;;;;;;;3.35;1.63;;;;;;;23.04;48.86;102335.59;5133573;28;20046;-66
2022/07/11 03:28:13;;;;;;;3.40;1.70;;;;;;;23.04;48.52;102340.09;5135814;27;20030;-65
2022/07/11 03:30:38;;;;;;;3.55;1.88;;;;;;;23.04;48.51;102337.44;5137844;27;20275;-66
2022/07/11 03:33:03;;;;;;;3.77;1.77;;;;;;;23.04;48.63;102338.25;5137339;27;20023;-66
2022/07/11 03:35:41;;;;;;;3.83;2.00;;;;;;;23.03;48.78;102338.38;5136921;27;20354;-65
2022/07/11 03:38:06;;;;;;;4.32;1.85;;;;;;;23.04;49.01;102332.09;5137444;27;20279;-65
2022/07/11 03:40:37;;;;;;;3.55;1.85;;;;;;;23.02;48.63;102334.88;5137561;27;20019;-66
2022/07/11 03:43:03;;;;;;;3.85;1.80;;;;;;;23.02;48.65;102334.88;5136426;27;20462;-66
2022/07/11 03:45:28;;;;;;;4.15;1.98;;;;;;;23.02;48.88;102326.91;5137521;27;20038;-66
2022/07/11 03:47:53;;;;;;;4.15;1.80;;;;;;;23.01;48.88;102333.19;5137093;27;20026;-66
2022/07/11 03:50:19;;;;;;;3.35;1.65;;;;;;;23.01;48.79;102331.38;5136430;27;20027;-66
2022/07/11 03:52:47;;;;;;;3.80;1.75;;;;;;;23.03;49.01;102343.69;5137473;27;20016;-66
2022/07/11 03:55:13;;;;;;;3.88;1.60;;;;;;;23.03;48.55;102339.22;5136012;27;20441;-66
2022/07/11 03:57:38;;;;;;;3.60;1.55;;;;;;;23.01;48.71;102333.19;5137218;27;20107;-66
2022/07/11 04:00:08;;;;;;;4.05;1.80;;;;;;;23.01;48.89;102338.50;5136786;27;20019;-66
2022/07/11 04:02:34;;;;;;;3.13;1.92;;;;;;;23.01;48.73;102331.38;5136107;27;20462;-66
2022/07/11 04:05:00;;;;;;;3.63;1.73;;;;;;;23.02;49.16;102332.22;5136568;27;20034;-66
2022/07/11 04:07:28;;;;;;;3.42;1.70;;;;;;;23.02;48.81;102340.22;5137139;27;20076;-66
2022/07/11 04:09:53;;;;;;;3.50;1.60;;;;;;;23.03;48.62;102343.69;5117215;27;20035;-65
2022/07/11 04:12:18;;;;;;;3.92;1.80;;;;;;;23.00;49.12;102339.47;5137033;27;20425;-66
2022/07/11 04:14:44;;;;;;;3.92;1.80;;;;;;;23.01;48.77;102343.81;5136898;27;20051;-66
2022/07/11 04:17:12;;;;;;;3.20;1.45;;;;;;;23.00;48.72;102335.00;5135706;27;20026;-66
2022/07/11 04:19:38;;;;;;;4.25;1.75;;;;;;;23.00;48.96;102332.34;5136471;27;20111;-66
2022/07/11 04:22:06;;;;;;;3.80;1.75;;;;;;;23.00;49.16;102328.81;5136438;27;20110;-66
2022/07/11 04:24:32;;;;;;;3.63;1.52;;;;;;;23.01;48.94;102326.03;5135863;27;20027;-66
2022/07/11 04:27:00;;;;;;;3.55;1.70;;;;;;;23.01;49.11;102334.03;5136271;27;20463;-66
2022/07/11 04:29:25;;;;;;;5.20;1.92;;;;;;;23.01;48.82;102333.19;5136537;27;20046;-66
2022/07/11 04:31:51;;;;;;;4.60;1.92;;;;;;;23.01;48.91;102333.19;5135387;27;20486;-66
2022/07/11 04:34:17;;;;;;;3.45;1.80;;;;;;;23.03;49.31;102335.72;5127217;27;20027;-66
2022/07/11 04:36:42;;;;;;;5.13;1.83;;;;;;;23.01;49.30;102335.84;5136722;27;20439;-66
2022/07/11 04:39:07;;;;;;;4.05;1.80;;;;;;;23.01;49.21;102334.03;5134569;27;20022;-66
2022/07/11 04:41:33;;;;;;;3.25;1.67;;;;;;;23.01;49.35;102331.38;5135494;27;20051;-66
2022/07/11 04:43:58;;;;;;;3.72;1.60;;;;;;;23.03;49.41;102341.03;5135999;27;20436;-66
2022/07/11 04:46:24;;;;;;;3.40;1.70;;;;;;;23.02;49.22;102345.53;5135449;27;20094;-67
2022/07/11 04:48:49;;;;;;;3.95;1.75;;;;;;;23.03;49.24;102343.69;5136374;27;20106;-66
2022/07/11 04:51:14;;;;;;;3.15;1.60;;;;;;;23.02;49.20;102345.53;5136205;27;20030;-66
2022/07/11 04:53:40;;;;;;;3.67;1.70;;;;;;;23.01;49.32;102344.66;5135399;27;20026;-66
2022/07/11 04:56:06;;;;;;;3.42;1.75;;;;;;;23.02;49.15;102348.19;5135824;27;20015;-66
2022/07/11 04:58:35;;;;;;;4.00;1.90;;;;;;;23.03;49.34;102352.50;5135238;27;20023;-66
2022/07/11 05:01:00;;;;;;;3.35;1.83;;;;;;;23.04;49.39;102348.91;5135546;27;20027;-66
2022/07/11 05:03:26;;;;;;;4.32;1.50;;;;;;;23.03;49.53;102351.69;5136200;27;20042;-66
2022/07/11 05:05:51;;;;;;;3.80;1.75;;;;;;;23.03;49.40;102359.66;5134967;27;20026;-66
2022/07/11 05:08:16;;;;;;;3.83;1.70;;;;;;;23.04;49.53;102359.53;5135614;27;20051;-66
2022/07/11 05:10:41;;;;;;;5.47;1.70;;;;;;;23.01;49.31;102357.94;5135529;27;20303;-66
2022/07/11 05:13:07;;;;;;;4.47;1.97;;;;;;;22.97;49.79;102368.94;5134722;27;20268;-67
2022/07/11 05:15:32;;;;;;;3.40;1.70;;;;;;;22.93;49.56;102365.69;5135495;27;20777;-65
2022/07/11 05:17:57;;;;;;;4.33;1.80;;;;;;;22.92;49.89;102366.66;5135294;27;20023;-64
2022/07/11 05:20:22;;;;;;;4.30;1.80;;;;;;;22.91;49.69;102364.97;5135046;27;20367;-66
2022/07/11 05:22:48;;;;;;;4.20;1.63;;;;;;;22.93;49.94;102368.34;5134227;27;20750;-67
2022/07/11 05:25:13;;;;;;;3.42;1.60;;;;;;;22.94;49.63;102372.72;5135190;27;20523;-66
2022/07/11 05:27:39;;;;;;;2.88;1.52;;;;;;;22.95;50.00;102370.88;5134781;27;20027;-66
2022/07/11 05:30:05;;;;;;;4.90;1.55;;;;;;;22.97;50.14;102367.16;5135060;27;20027;-66
2022/07/11 05:32:30;;;;;;;4.22;1.60;;;;;;;22.99;50.10;102367.88;5135488;27;20059;-66
2022/07/11 05:35:00;;;;;;;3.53;1.50;;;;;;;23.00;50.31;102368.69;5134601;27;20019;-66
2022/07/11 05:37:25;;;;;;;4.78;1.90;;;;;;;22.99;50.07;102365.22;5135397;27;20471;-66
2022/07/11 05:39:51;;;;;;;3.25;1.60;;;;;;;23.03;50.45;102364.97;5135165;27;20070;-66
2022/07/11 05:42:16;;;;;;;2.80;1.42;;;;;;;23.04;50.43;102372.00;5134503;27;20031;-67
2022/07/11 05:44:42;;;;;;;4.05;1.80;;;;;;;23.06;50.33;102373.53;5135338;27;20477;-67
2022/07/11 05:47:07;;;;;;;4.45;1.95;;;;;;;23.07;50.49;102372.59;5135184;27;20031;-66
2022/07/11 05:49:35;;;;;;;5.78;1.80;;;;;;;23.07;50.56;102385.88;5134580;27;20027;-67
2022/07/11 05:52:09;;;;;;;5.07;1.70;;;;;;;23.08;50.55;102376.97;5134017;27;20091;-66
2022/07/11 05:54:35;;;;;;;;;;;;;;;23.11;50.55;102370.56;5134816;27;20478;-66
2022/07/11 05:57:02;;;;;;;3.97;1.40;;;;;;;23.11;50.18;102374.06;5133954;27;19911;-66
2022/07/11 05:59:27;;;;;;;3.47;1.55;;;;;;;23.11;50.69;102376.72;5134932;27;20035;-65
2022/07/11 06:01:53;;;;;;;3.97;1.55;;;;;;;23.12;50.59;102381.06;5134059;27;20028;-65
2022/07/11 06:04:18;;;;;;;4.28;1.73;;;;;;;23.13;50.59;102371.28;5134891;27;20363;-65
2022/07/11 06:06:44;;;;;;;2.65;1.20;;;;;;;23.12;50.20;102373.09;5134947;27;20045;-65
2022/07/11 06:09:09;;;;;;;3.45;1.65;;;;;;;23.14;50.59;102384.44;5133738;27;20023;-65
2022/07/11 06:11:35;;;;;;;6.00;1.80;;;;;;;23.13;50.65;102382.78;5134606;27;20043;-65
2022/07/11 06:14:00;;;;;;;3.35;1.42;;;;;;;23.17;50.40;102383.38;5134391;27;20435;-65
2022/07/11 06:16:25;;;;;;;4.00;1.45;;;;;;;23.17;50.51;102386.88;5133978;27;20076;-66
2022/07/11 06:18:54;;;;;;;3.00;1.65;;;;;;;23.16;50.35;102385.19;5134462;27;20027;-68
2022/07/11 06:21:20;;;;;;;4.45;2.00;;;;;;;23.07;51.11;102395.69;5134592;27;20023;-67
2022/07/11 06:23:46;;;;;;;4.75;1.77;;;;;;;22.95;51.36;102398.31;5133613;27;20394;-68
2022/07/11 06:26:11;;;;;;;6.30;1.98;;;;;;;22.95;51.63;102397.47;5134169;27;20027;-71
2022/07/11 06:28:38;;;;;;;4.47;1.95;;;;;;;22.97;51.62;102393.72;5134351;27;20131;-67
2022/07/11 06:31:03;;;;;;;5.10;1.67;;;;;;;22.98;51.62;102400.72;5133531;27;20030;-66
2022/07/11 06:33:29;;;;;;;5.70;1.90;;;;;;;22.98;51.40;102398.06;5134486;27;20027;-67
2022/07/11 06:35:54;;;;;;;4.32;1.90;;;;;;;22.99;51.69;102394.44;5134122;27;20030;-67
2022/07/11 06:38:20;;;;;;;5.47;1.98;;;;;;;23.00;51.57;102389.97;5133541;27;20080;-67
2022/07/11 06:40:46;;;;;;;7.55;1.98;;;;;;;23.01;51.48;102397.84;5134282;27;20019;-65
2022/07/11 06:43:14;;;;;;;5.53;2.08;;;;;;;23.06;51.51;102397.47;5133868;27;20031;-65
2022/07/11 06:45:40;;;;;;;4.82;2.10;;;;;;;23.10;51.46;102396.31;5133720;27;20378;-67
2022/07/11 06:48:06;;;;;;;8.98;2.25;;;;;;;23.13;51.42;102396.06;5134428;27;20083;-67
2022/07/11 06:50:32;;;;;;;4.75;2.00;;;;;;;23.19;50.77;102400.03;5134054;27;20417;-65
2022/07/11 06:52:59;;;;;;;4.43;2.10;;;;;;;23.23;50.83;102396.19;5133004;27;20019;-64
2022/07/11 06:55:25;;;;;;;7.15;2.00;;;;;;;23.27;51.06;102397.63;5134047;27;20037;-66
2022/07/11 06:57:53;;;;;;;5.50;2.03;;;;;;;23.31;50.62;102390.28;5133583;27;20019;-64
2022/07/11 07:00:18;;;;;;;3.95;1.80;;;;;;;23.35;50.51;102395.22;5133613;27;20031;-67
2022/07/11 07:02:44;;;;;;;4.20;1.83;;;;;;;23.37;50.46;102392.44;5133701;27;20042;-64
2022/07/11 07:05:13;;;;;;;3.45;1.80;;;;;;;23.39;50.31;102394.97;5132932;27;20019;-64
2022/07/11 07:07:38;;;;;;;3.58;1.88;;;;;;;23.43;50.34;102393.75;5133913;27;20027;-64
2022/07/11 07:10:04;;;;;;;3.28;1.55;;;;;;;23.44;50.24;102390.13;5133343;27;20046;-65
2022/07/11 07:12:31;;;;;;;7.63;1.95;;;;;;;23.46;50.13;102388.19;5132986;27;20122;-67
2022/07/11 07:14:57;;;;;;;4.55;1.90;;;;;;;23.47;50.24;102387.22;5133385;27;20023;-64
2022/07/11 07:17:22;;;;;;;5.80;1.90;;;;;;;23.44;50.72;102390.13;5133927;28;20080;-64
2022/07/11 07:19:47;;;;;;;3.40;1.50;;;;;;;23.41;50.12;102393.88;5132818;28;20370;-63
2022/07/11 07:22:16;;;;;;;6.33;1.70;;;;;;;23.37;50.18;102392.44;5132525;28;20039;-63
2022/07/11 07:24:42;;;;;;;5.10;2.05;;;;;;;23.35;50.66;102389.91;5133630;28;20305;-66
2022/07/11 07:27:07;;;;;;;5.05;2.22;;;;;;;23.33;50.41;102383.84;5132397;28;20023;-66
2022/07/11 07:29:32;;;;;;;8.03;3.10;;;;;;;23.25;50.35;102375.63;5133772;28;20111;-67
2022/07/11 07:31:58;;;;;;;8.77;3.38;;;;;;;23.14;50.56;102376.47;5133369;28;20266;-71
2022/07/11 07:34:23;;;;;;;9.48;3.20;;;;;;;23.03;51.19;102378.25;5133498;28;20059;-69
2022/07/11 07:36:51;;;;;;;6.07;3.50;;;;;;;22.93;50.91;102381.63;5133655;28;20486;-66
2022/07/11 07:39:17;;;;;;;8.05;3.42;;;;;;;22.85;51.54;102383.22;5134901;28;20300;-70
2022/07/11 07:41:42;;;;;;;5.50;3.40;;;;;;;22.75;51.40;102377.75;5133088;28;20034;-69
2022/07/11 07:44:08;;;;;;;5.88;3.05;;;;;;;22.67;52.13;102378.34;5134609;28;20106;-72
2022/07/11 07:46:33;;;;;;;6.32;3.30;;;;;;;22.62;52.11;102385.81;5134501;28;20382;-66
2022/07/11 07:48:59;;;;;;;5.18;3.60;;;;;;;22.56;51.97;102375.69;5132344;28;20019;-67
2022/07/11 07:51:24;;;;;;;5.13;3.00;;;;;;;22.52;52.11;102385.66;5133544;28;20034;-66
2022/07/11 07:53:50;;;;;;;6.65;3.38;;;;;;;22.50;51.82;102389.41;5133089;28;20030;-65
2022/07/11 07:56:15;;;;;;;4.93;3.03;;;;;;;22.44;52.09;102383.59;5132533;28;20633;-66
2022/07/11 07:58:40;;;;;;;27.15;5.30;;;;;;;22.42;52.00;102390.00;5133601;28;20282;-65
2022/07/11 08:03:51;;;;;;;9.43;3.45;;;;;;;22.37;52.61;102390.34;5133347;28;20382;-70
2022/07/11 08:06:16;;;;;;;6.03;3.08;;;;;;;22.36;52.78;102391.28;5132309;28;20035;-69
2022/07/11 08:08:41;;;;;;;6.63;3.40;;;;;;;22.37;52.38;102400.97;5132394;28;20047;-67
2022/07/11 08:11:07;;;;;;;5.00;3.40;;;;;;;22.34;52.70;102389.72;5132886;28;20542;-68
2022/07/11 08:13:32;;;;;;;8.38;3.72;;;;;;;22.37;52.01;102389.50;5133402;27;20439;-69
2022/07/11 08:15:58;;;;;;;5.05;3.20;;;;;;;22.37;52.83;102392.16;5136061;27;20031;-69
2022/07/11 08:18:23;;;;;;;7.63;4.22;;;;;;;22.36;52.42;102393.94;5137080;27;20474;-70
2022/07/11 08:20:48;;;;;;;6.85;3.47;;;;;;;22.35;52.52;102396.72;5136960;27;20050;-70
2022/07/11 08:23:17;;;;;;;6.17;3.37;;;;;;;22.29;52.46;102390.03;5135805;27;20019;-69
2022/07/11 08:25:42;;;;;;;6.05;3.10;;;;;;;22.31;52.96;102397.94;5137146;27;20328;-74
2022/07/11 08:28:08;;;;;;;6.15;3.58;;;;;;;22.27;52.94;102397.25;5136706;27;20458;-70
2022/07/11 08:30:33;;;;;;;5.20;3.22;;;;;;;22.26;53.32;102395.59;5136035;27;20111;-70
2022/07/11 08:32:58;;;;;;;5.68;3.28;;;;;;;22.24;52.99;102397.50;5136481;27;20045;-66
2022/07/11 08:35:24;;;;;;;5.10;3.55;;;;;;;22.21;53.11;102395.09;5136757;27;20022;-69
2022/07/11 08:37:49;;;;;;;7.75;4.07;;;;;;;22.22;53.16;102399.41;5135524;27;20019;-68
2022/07/11 08:40:18;;;;;;;5.90;3.75;;;;;;;22.24;53.39;102400.16;5136673;27;20019;-67
2022/07/11 08:42:50;;;;;;;6.50;3.90;;;;;;;22.24;53.47;102392.19;5136566;27;20027;-65
2022/07/11 08:45:17;;;;;;;7.22;4.03;;;;;;;22.28;53.38;102398.97;5135776;27;20042;-64
2022/07/11 08:47:46;;;;;;;7.25;4.32;;;;;;;22.28;53.50;102396.31;5135407;27;20027;-64
2022/07/11 08:50:12;;;;;;;6.13;3.65;;;;;;;22.30;53.59;102399.72;5136243;27;20027;-66
2022/07/11 08:52:38;;;;;;;6.53;3.58;;;;;;;22.32;53.28;102394.28;5136425;27;20066;-67
2022/07/11 08:55:07;;;;;;;7.15;4.50;;;;;;;22.34;53.22;102397.69;5136270;27;20077;-67
2022/07/11 08:57:36;;;;;;;8.55;4.32;;;;;;;22.33;53.64;102393.34;5135743;27;20065;-64
2022/07/11 09:00:23;;;;;;;7.13;4.32;;;;;;;22.30;53.55;102399.72;5136020;27;20015;-66
2022/07/11 09:02:49;;;;;;;7.30;4.75;;;;;;;22.28;53.63;102398.97;5135178;27;20379;-66
2022/07/11 09:05:15;;;;;;;6.82;4.50;;;;;;;22.27;54.14;102394.59;5135700;27;20025;-69
2022/07/11 09:07:46;;;;;;;6.70;4.70;;;;;;;22.26;53.90;102395.59;5135946;27;20023;-67
2022/07/11 09:10:12;;;;;;;11.25;4.85;;;;;;;22.23;53.83;102387.84;5135531;27;20039;-70
2022/07/11 09:12:38;;;;;;;8.43;4.15;;;;;;;22.25;53.89;102388.56;5135293;27;20034;-72
2022/07/11 09:15:03;;;;;;;7.18;4.60;;;;;;;22.28;53.71;102386.53;5135652;27;20019;-69
2022/07/11 09:17:32;;;;;;;6.90;4.90;;;;;;;22.30;53.86;102386.44;5135946;27;20046;-68
2022/07/11 09:19:57;;;;;;;11.57;5.22;;;;;;;22.34;54.10;102390.56;5135069;27;20027;-68
2022/07/11 09:25:23;;;;;;;7.85;5.30;;;;;;;22.44;53.26;102390.72;5135282;27;20037;-68
2022/07/11 09:27:50;;;;;;;9.32;5.10;;;;;;;22.46;53.24;102388.78;5134896;27;20482;-67
2022/07/11 09:30:26;;;;;;;7.00;5.22;;;;;;;22.49;53.52;102388.56;5134738;27;20359;-71
2022/07/11 09:33:03;;;;;;;8.13;5.30;;;;;;;22.52;53.37;102384.81;5134536;27;20035;-70
2022/07/11 09:35:37;;;;;;;7.75;5.20;;;;;;;22.54;53.37;102381.09;5135445;27;20107;-68
2022/07/11 09:38:06;;;;;;;9.02;5.15;;;;;;;22.55;52.90;102377.47;5135178;27;20097;-69
2022/07/11 09:40:32;;;;;;;7.25;5.30;;;;;;;22.57;53.34;102380.88;5134707;27;20115;-66
2022/07/11 09:42:59;;;;;;;9.32;5.63;;;;;;;22.57;53.31;102374.69;5135028;27;20485;-69
2022/07/11 09:45:27;;;;;;;9.60;5.38;;;;;;;22.61;53.60;102373.50;5135492;27;20102;-69
2022/07/11 09:47:58;;;;;;;8.35;4.63;;;;;;;22.66;53.09;102375.81;5134314;27;20016;-75
2022/07/11 09:50:28;;;;;;;7.70;4.35;;;;;;;22.70;53.05;102380.78;5135117;27;20454;-69
2022/07/11 09:53:08;;;;;;;8.27;5.05;;;;;;;22.71;52.95;102379.78;5134788;27;20462;-69
2022/07/11 09:55:36;;;;;;;7.78;4.50;;;;;;;22.72;52.54;102381.50;5134432;27;20023;-72
2022/07/11 09:58:05;;;;;;;7.18;5.10;;;;;;;22.71;52.84;102374.47;5134767;27;20035;-70
2022/07/11 10:00:32;;;;;;;7.40;4.80;;;;;;;22.72;52.79;102378.00;5135078;27;20023;-68
2022/07/11 10:02:58;;;;;;;6.65;4.55;;;;;;;22.73;52.69;102379.69;5133973;27;20428;-65
2022/07/11 10:05:27;;;;;;;8.98;5.30;;;;;;;22.73;53.09;102383.19;5134882;27;20102;-68
2022/07/11 10:07:56;;;;;;;10.07;4.97;;;;;;;22.77;53.26;102381.97;5133994;27;20023;-73
2022/07/11 10:10:21;;;;;;;8.93;5.13;;;;;;;22.79;52.99;102385.34;5134731;27;20104;-73
2022/07/11 10:12:47;;;;;;;8.35;4.57;;;;;;;22.81;53.14;102383.44;5134847;27;20467;-71
2022/07/11 10:15:17;;;;;;;9.65;4.93;;;;;;;22.81;53.11;102386.09;5133630;27;20836;-72
2022/07/11 10:17:58;;;;;;;7.68;5.22;;;;;;;22.82;53.05;102389.59;5134704;27;20023;-67
2022/07/11 10:20:32;;;;;;;9.23;4.95;;;;;;;22.83;52.79;102392.13;5134791;27;20023;-65
2022/07/11 10:23:12;;;;;;;7.47;5.00;;;;;;;22.82;52.77;102387.78;5133484;27;20034;-67
2022/07/11 10:25:48;;;;;;;11.68;5.30;;;;;;;22.82;53.03;102378.97;5134777;27;20015;-70
2022/07/11 10:28:26;;;;;;;9.93;5.65;;;;;;;22.80;53.66;102384.41;5134261;27;20054;-70
2022/07/11 10:30:59;;;;;;;8.68;5.82;;;;;;;22.79;53.28;102382.69;5133655;27;20027;-72
2022/07/11 10:33:26;;;;;;;9.32;5.88;;;;;;;22.80;53.28;102392.38;5134397;27;20470;-67
2022/07/11 10:35:53;;;;;;;8.48;5.75;;;;;;;22.77;53.11;102389.94;5134085;27;20049;-69
2022/07/11 10:38:19;;;;;;;8.10;5.30;;;;;;;22.76;53.07;102398.03;5133005;27;20023;-68
2022/07/11 10:40:52;;;;;;;8.30;4.85;;;;;;;22.71;53.39;102389.59;5134059;27;20347;-66
2022/07/11 10:43:29;;;;;;;9.15;4.90;;;;;;;22.72;53.71;102396.59;5133612;27;20402;-64
2022/07/11 10:46:01;;;;;;;8.73;4.53;;;;;;;22.73;53.70;102392.97;5133994;27;20058;-65
2022/07/11 10:48:32;;;;;;;9.02;4.50;;;;;;;22.75;53.58;102393.72;5134274;27;20019;-64
2022/07/11 10:51:01;;;;;;;8.02;4.80;;;;;;;22.78;53.45;102391.66;5133068;27;20382;-64
2022/07/11 10:53:33;;;;;;;9.20;4.85;;;;;;;22.82;53.12;102401.06;5134047;27;20462;-66
2022/07/11 10:56:13;;;;;;;6.53;4.47;;;;;;;22.83;52.91;102397.47;5134223;27;20031;-64
2022/07/11 10:58:45;;;;;;;7.13;4.30;;;;;;;22.87;52.89;102395.41;5133496;27;20023;-64
2022/07/11 11:01:15;;;;;;;8.25;4.10;;;;;;;22.93;52.89;102394.09;5133574;27;20015;-62
2022/07/11 11:03:42;;;;;;;7.20;4.00;;;;;;;22.97;52.61;102396.41;5133964;27;20031;-64
2022/07/11 11:06:09;;;;;;;5.82;3.55;;;;;;;23.05;52.37;102395.81;5133081;27;20027;-65
2022/07/11 11:08:35;;;;;;;5.30;3.67;;;;;;;23.12;52.24;102388.22;5133993;27;20023;-68
2022/07/11 11:11:04;;;;;;;6.07;3.55;;;;;;;23.17;51.70;102392.19;5133361;27;20509;-68
2022/07/11 11:13:30;;;;;;;5.68;3.85;;;;;;;23.26;51.77;102400.44;5133289;27;20077;-68
2022/07/11 11:16:20;;;;;;;5.38;3.28;;;;;;;23.31;51.55;102393.75;5133516;27;20031;-67
2022/07/11 11:18:46;;;;;;;6.75;3.85;;;;;;;23.35;51.05;102403.22;5118032;28;20106;-66
2022/07/11 11:21:11;;;;;;;6.10;3.70;;;;;;;23.41;51.03;102403.69;5133343;28;20482;-69
2022/07/11 11:23:40;;;;;;;7.00;3.87;;;;;;;23.41;51.23;102403.69;5133810;28;20031;-67
2022/07/11 11:26:08;;;;;;;5.70;3.50;;;;;;;23.45;51.18;102408.63;5132529;28;20348;-68
2022/07/11 11:28:34;;;;;;;6.55;4.10;;;;;;;23.42;51.73;102403.56;5133509;28;20038;-67
2022/07/11 11:31:03;;;;;;;15.43;3.85;;;;;;;23.42;51.56;102408.88;5133620;28;20023;-65